Terminal Aerodrome Forecast
Issued by NWS Bismarck, ND

Home | Current Version | Previous Version | Graphics & Text | Print | Product List | Glossary On
Versions: 1 2 3 4 5 6 7 8 9 10 11 12 13 14 15 16 17 18
004
FTUS43 KBIS 172322
TAFBIS
TAF
KBIS 172322Z 1800/1824 24010KT P6SM SKC
     FM180700 21006KT P6SM FEW150 FEW250 WS020/24045KT
     FM181000 29009KT P6SM FEW150 FEW250 WS020/30045KT
     FM181600 30016KT P6SM SCT250=

USA.gov is the U.S. government's official web portal to all federal, state and local government web resources and services.